createdAt,value
2017-11-25T00:01:01.498Z,26.70
2017-11-25T00:04:03.621Z,28.80
2017-11-25T00:07:05.015Z,40.00
2017-11-25T00:10:07.163Z,41.27
2017-11-25T00:13:08.507Z,64.60
2017-11-25T00:16:09.931Z,47.87
2017-11-25T00:19:11.298Z,35.87
2017-11-25T00:22:12.683Z,41.40
2017-11-25T00:25:14.814Z,43.40
2017-11-25T00:28:16.257Z,54.83
2017-11-25T00:31:17.800Z,47.43
2017-11-25T00:34:19.178Z,48.10
2017-11-25T00:37:20.638Z,192.63
2017-11-25T00:40:22.049Z,80.17
2017-11-25T00:43:23.455Z,51.90
2017-11-25T00:46:24.804Z,34.60
2017-11-25T00:49:26.215Z,29.20
2017-11-25T00:52:27.602Z,28.47
2017-11-25T00:55:29.071Z,29.80
2017-11-25T00:58:31.242Z,27.83
2017-11-25T01:01:32.600Z,28.70
2017-11-25T01:04:34.747Z,27.00
2017-11-25T01:07:36.102Z,28.53
2017-11-25T01:10:38.226Z,33.20
2017-11-25T01:13:39.617Z,31.80
2017-11-25T01:16:41.778Z,31.00
2017-11-25T01:19:43.218Z,28.27
2017-11-25T01:22:44.699Z,26.90
2017-11-25T01:25:46.904Z,26.90
2017-11-25T01:28:48.660Z,25.53
2017-11-25T01:31:50.541Z,27.90
2017-11-25T01:34:52.688Z,27.50
2017-11-25T01:37:54.166Z,26.20
2017-11-25T01:40:55.642Z,27.70
2017-11-25T01:43:57.151Z,26.10
2017-11-25T01:46:58.609Z,29.00
2017-11-25T01:50:00.084Z,26.07
2017-11-25T01:53:02.328Z,27.90
2017-11-25T01:56:03.818Z,29.53
2017-11-25T01:59:05.358Z,28.67
2017-11-25T02:02:07.610Z,28.67
2017-11-25T02:05:09.049Z,24.50
2017-11-25T02:08:10.450Z,21.87
2017-11-25T02:11:11.893Z,16.33
2017-11-25T02:14:13.377Z,14.57
2017-11-25T02:17:14.920Z,13.93
2017-11-25T02:20:16.366Z,13.73
2017-11-25T02:23:17.819Z,14.37
2017-11-25T02:26:19.358Z,14.20
2017-11-25T02:29:21.045Z,13.50
2017-11-25T02:32:22.522Z,13.70
2017-11-25T02:35:24.742Z,10.50
2017-11-25T02:38:26.270Z,7.53
2017-11-25T02:41:27.847Z,6.50
2017-11-25T02:44:29.364Z,7.00
2017-11-25T02:47:30.814Z,6.60
2017-11-25T02:50:33.235Z,5.70
2017-11-25T02:53:34.787Z,5.90
2017-11-25T02:56:36.292Z,5.40
2017-11-25T02:59:37.792Z,4.70
2017-11-25T03:02:39.236Z,4.47
2017-11-25T03:05:40.753Z,3.70
2017-11-25T03:08:42.942Z,4.57
2017-11-25T03:11:44.421Z,4.10
2017-11-25T03:14:45.888Z,5.10
2017-11-25T03:17:47.397Z,4.50
2017-11-25T03:20:48.898Z,5.10
2017-11-25T03:23:50.395Z,5.73
2017-11-25T03:26:52.151Z,6.77
2017-11-25T03:29:54.361Z,7.27
2017-11-25T03:32:55.869Z,7.77
2017-11-25T03:35:58.097Z,8.73
2017-11-25T03:38:59.640Z,7.40
2017-11-25T03:42:01.152Z,7.17
2017-11-25T03:45:03.451Z,7.83
2017-11-25T03:48:04.906Z,7.93
2017-11-25T03:51:06.374Z,9.07
2017-11-25T03:54:07.956Z,9.77
2017-11-25T03:57:09.480Z,10.67
2017-11-25T04:00:11.019Z,12.70
2017-11-25T04:03:12.480Z,11.03
2017-11-25T04:06:13.988Z,11.00
2017-11-25T04:09:16.221Z,8.70
2017-11-25T04:12:17.727Z,9.30
2017-11-25T04:15:19.898Z,8.70
2017-11-25T04:18:22.132Z,8.00
2017-11-25T04:21:23.617Z,7.37
2017-11-25T04:24:25.837Z,8.00
2017-11-25T04:27:27.362Z,8.30
2017-11-25T04:30:28.809Z,8.60
2017-11-25T04:33:30.306Z,9.70
2017-11-25T04:36:31.792Z,8.83
2017-11-25T04:39:34.002Z,9.93
2017-11-25T04:42:35.421Z,8.60
2017-11-25T04:45:37.631Z,8.83
2017-11-25T04:48:39.080Z,8.43
2017-11-25T04:51:40.581Z,8.23
2017-11-25T04:54:42.808Z,7.77
2017-11-25T04:57:44.294Z,7.70
2017-11-25T05:00:45.805Z,7.27
2017-11-25T05:03:47.242Z,7.43
2017-11-25T05:06:48.744Z,7.67
2017-11-25T05:09:50.254Z,7.80
2017-11-25T05:12:51.722Z,7.53
2017-11-25T05:15:53.222Z,7.50
2017-11-25T05:18:54.667Z,8.73
2017-11-25T05:21:56.209Z,7.83
2017-11-25T05:24:57.639Z,7.27
2017-11-25T05:27:59.144Z,7.67
2017-11-25T05:31:01.314Z,7.67
2017-11-25T05:34:03.581Z,6.90
2017-11-25T05:37:05.794Z,8.30
2017-11-25T05:40:07.288Z,8.40
2017-11-25T05:43:08.757Z,7.97
2017-11-25T05:46:10.272Z,7.40
2017-11-25T05:49:11.742Z,7.83
2017-11-25T05:52:13.216Z,7.40
2017-11-25T05:55:14.700Z,7.73
2017-11-25T05:58:16.139Z,7.97
2017-11-25T06:01:18.324Z,8.37
2017-11-25T06:04:19.735Z,8.50
2017-11-25T06:07:21.186Z,7.93
2017-11-25T06:10:22.594Z,7.60
2017-11-25T06:13:24.063Z,8.13
2017-11-25T06:16:25.538Z,7.73
2017-11-25T06:19:26.997Z,7.50
2017-11-25T06:22:28.427Z,7.77
2017-11-25T06:25:29.931Z,8.70
2017-11-25T06:28:32.137Z,8.37
2017-11-25T06:31:33.609Z,7.30
2017-11-25T06:34:35.090Z,8.67
2017-11-25T06:37:36.588Z,9.40
2017-11-25T06:40:38.056Z,8.27
2017-11-25T06:43:39.484Z,8.60
2017-11-25T06:46:40.985Z,7.70
2017-11-25T06:49:42.425Z,9.50
2017-11-25T06:52:43.941Z,8.60
2017-11-25T06:55:45.383Z,9.20
2017-11-25T06:58:47.595Z,9.60
2017-11-25T07:01:49.087Z,9.57
2017-11-25T07:04:51.273Z,10.17
2017-11-25T07:07:53.499Z,8.50
2017-11-25T07:10:55.713Z,11.20
2017-11-25T07:13:57.907Z,10.33
2017-11-25T07:16:59.380Z,11.30
2017-11-25T07:20:00.838Z,10.73
2017-11-25T07:23:03.029Z,11.93
2017-11-25T07:26:04.483Z,11.10
2017-11-25T07:29:05.936Z,11.50
2017-11-25T07:32:07.377Z,10.03
2017-11-25T07:35:09.569Z,12.00
2017-11-25T07:38:11.054Z,11.90
2017-11-25T07:41:12.517Z,10.40
2017-11-25T07:44:14.214Z,9.40
2017-11-25T07:47:15.937Z,10.37
2017-11-25T07:50:17.385Z,11.37
2017-11-25T07:53:18.765Z,11.30
2017-11-25T07:56:20.112Z,11.67
2017-11-25T07:59:21.567Z,11.47
2017-11-25T08:02:22.925Z,12.03
2017-11-25T08:05:24.315Z,13.40
2017-11-25T08:08:26.417Z,11.90
2017-11-25T08:11:27.822Z,12.77
2017-11-25T08:14:29.186Z,12.80
2017-11-25T08:17:31.256Z,10.37
2017-11-25T08:20:33.572Z,11.70
2017-11-25T08:23:34.946Z,11.37
2017-11-25T08:26:36.301Z,11.00
2017-11-25T08:29:37.613Z,12.27
2017-11-25T08:32:38.975Z,10.03
2017-11-25T08:35:40.325Z,12.57
2017-11-25T08:38:41.705Z,12.30
2017-11-25T08:41:43.048Z,12.57
2017-11-25T08:44:44.434Z,12.50
2017-11-25T08:47:46.528Z,11.60
2017-11-25T08:50:47.851Z,10.63
2017-11-25T08:53:50.032Z,12.07
2017-11-25T08:56:51.367Z,10.80
2017-11-25T08:59:53.474Z,10.97
2017-11-25T09:02:54.805Z,12.50
2017-11-25T09:05:56.230Z,12.10
2017-11-25T09:08:58.381Z,10.53
2017-11-25T09:11:59.725Z,9.03
2017-11-25T09:15:01.160Z,10.00
2017-11-25T09:18:02.744Z,8.40
2017-11-25T09:21:04.190Z,8.30
2017-11-25T09:24:05.557Z,10.57
2017-11-25T09:27:07.702Z,8.37
2017-11-25T09:30:09.237Z,8.40
2017-11-25T09:33:11.480Z,23.00
2017-11-25T09:36:12.811Z,7.80
2017-11-25T09:39:15.053Z,7.00
2017-11-25T09:42:16.420Z,5.80
2017-11-25T09:45:19.156Z,5.10
2017-11-25T09:48:20.505Z,5.33
2017-11-25T09:51:21.833Z,5.17
2017-11-25T09:54:23.228Z,6.00
2017-11-25T09:57:24.591Z,5.13
2017-11-25T10:00:25.993Z,6.50
2017-11-25T10:03:27.384Z,7.07
2017-11-25T10:06:28.761Z,6.90
2017-11-25T10:09:30.184Z,7.70
2017-11-25T10:12:32.198Z,8.67
2017-11-25T10:15:33.892Z,8.73
2017-11-25T10:18:35.327Z,7.00
2017-11-25T10:21:37.546Z,6.63
2017-11-25T10:24:38.911Z,5.83
2017-11-25T10:27:41.052Z,5.80
2017-11-25T10:30:42.317Z,6.80
2017-11-25T10:33:43.641Z,5.20
2017-11-25T10:36:44.969Z,7.40
2017-11-25T10:39:46.402Z,5.67
2017-11-25T10:42:47.822Z,5.70
2017-11-25T10:45:49.142Z,5.90
2017-11-25T10:48:50.493Z,5.47
2017-11-25T10:51:52.503Z,6.80
2017-11-25T10:54:54.633Z,26.37
2017-11-25T10:57:55.972Z,13.83
2017-11-25T11:00:57.308Z,8.67
2017-11-25T11:03:58.664Z,7.53
2017-11-25T11:06:59.987Z,7.70
2017-11-25T11:10:01.345Z,8.50
2017-11-25T11:13:02.758Z,14.93
2017-11-25T11:16:04.259Z,8.90
2017-11-25T11:19:05.618Z,13.87
2017-11-25T11:22:06.937Z,8.67
2017-11-25T11:25:08.291Z,6.70
2017-11-25T11:28:10.108Z,7.33
2017-11-25T11:31:11.472Z,10.90
2017-11-25T11:34:12.881Z,9.10
2017-11-25T11:37:14.266Z,9.20
2017-11-25T11:40:15.747Z,8.67
2017-11-25T11:43:17.865Z,9.70
2017-11-25T11:46:19.192Z,6.33
2017-11-25T11:49:27.583Z,6.73
2017-11-25T11:52:29.602Z,5.60
2017-11-25T11:55:31.700Z,6.40
2017-11-25T11:58:33.009Z,6.30
2017-11-25T12:01:34.398Z,7.33
2017-11-25T12:04:35.728Z,6.83
2017-11-25T12:07:37.171Z,6.53
2017-11-25T12:10:39.052Z,6.87
2017-11-25T12:13:40.385Z,6.90
2017-11-25T12:16:42.221Z,6.27
2017-11-25T12:19:44.271Z,6.20
2017-11-25T12:22:45.653Z,6.13
2017-11-25T12:25:47.745Z,5.83
2017-11-25T12:28:49.066Z,6.40
2017-11-25T12:31:50.410Z,6.10
2017-11-25T12:34:51.725Z,6.43
2017-11-25T12:37:53.780Z,6.50
2017-11-25T12:40:55.916Z,6.20
2017-11-25T12:43:57.256Z,6.87
2017-11-25T12:46:58.504Z,6.63
2017-11-25T12:49:59.838Z,6.23
2017-11-25T12:53:01.097Z,6.67
2017-11-25T12:56:02.473Z,6.10
2017-11-25T12:59:03.866Z,20.13
2017-11-25T13:02:05.207Z,6.33
2017-11-25T13:05:07.227Z,5.43
2017-11-25T13:08:08.539Z,4.67
2017-11-25T13:11:09.888Z,5.23
2017-11-25T13:14:11.192Z,5.03
2017-11-25T13:17:19.849Z,4.70
2017-11-25T13:20:21.192Z,5.10
2017-11-25T13:23:23.258Z,5.40
2017-11-25T13:26:25.285Z,5.57
2017-11-25T13:29:26.612Z,5.20
2017-11-25T13:32:27.929Z,5.47
2017-11-25T13:35:30.009Z,4.70
2017-11-25T13:38:31.349Z,5.67
2017-11-25T13:41:39.789Z,8.23
2017-11-25T13:44:41.150Z,6.50
2017-11-25T13:47:42.501Z,5.67
2017-11-25T13:50:43.936Z,5.50
2017-11-25T13:53:45.282Z,4.37
2017-11-25T13:56:46.639Z,8.40
2017-11-25T13:59:47.934Z,5.07
2017-11-25T14:02:49.292Z,6.40
2017-11-25T14:05:50.663Z,6.33
2017-11-25T14:08:52.953Z,6.60
2017-11-25T14:11:54.304Z,7.00
2017-11-25T14:14:55.635Z,5.50
2017-11-25T14:17:57.766Z,6.40
2017-11-25T14:20:59.080Z,5.67
2017-11-25T14:24:00.410Z,5.40
2017-11-25T14:27:01.709Z,5.60
2017-11-25T14:30:03.096Z,6.07
2017-11-25T14:33:05.177Z,5.73
2017-11-25T14:36:06.523Z,7.67
2017-11-25T14:39:07.847Z,6.47
2017-11-25T14:42:09.284Z,6.33
2017-11-25T14:45:10.646Z,6.20
2017-11-25T14:48:12.004Z,6.53
2017-11-25T14:51:13.374Z,6.23
2017-11-25T14:54:15.475Z,8.50
2017-11-25T14:57:16.899Z,6.40
2017-11-25T15:00:18.215Z,7.00
2017-11-25T15:03:19.565Z,8.50
2017-11-25T15:06:20.865Z,7.83
2017-11-25T15:09:22.224Z,7.90
2017-11-25T15:12:23.611Z,8.30
2017-11-25T15:15:24.961Z,7.10
2017-11-25T15:18:26.322Z,7.93
2017-11-25T15:21:27.672Z,8.87
2017-11-25T15:24:29.028Z,9.23
2017-11-25T15:27:31.071Z,9.53
2017-11-25T15:30:32.462Z,8.43
2017-11-25T15:33:33.790Z,7.50
2017-11-25T15:36:35.517Z,7.40
2017-11-25T15:39:36.874Z,8.00
2017-11-25T15:42:38.286Z,7.73
2017-11-25T15:45:39.633Z,7.40
2017-11-25T15:48:40.906Z,7.53
2017-11-25T15:51:43.151Z,7.50
2017-11-25T15:54:44.460Z,8.20
2017-11-25T15:57:45.837Z,7.60
2017-11-25T16:00:47.934Z,7.97
2017-11-25T16:03:49.315Z,8.07
2017-11-25T16:06:50.670Z,8.20
2017-11-25T16:09:51.954Z,13.07
2017-11-25T16:12:54.033Z,9.33
2017-11-25T16:15:55.351Z,8.70
2017-11-25T16:18:56.694Z,8.27
2017-11-25T16:21:58.049Z,7.30
2017-11-25T16:24:59.413Z,8.60
2017-11-25T16:28:01.491Z,8.13
2017-11-25T16:31:03.596Z,8.77
2017-11-25T16:34:04.937Z,8.40
2017-11-25T16:37:06.274Z,7.87
2017-11-25T16:40:07.691Z,7.50
2017-11-25T16:43:09.021Z,8.20
2017-11-25T16:46:10.382Z,8.40
2017-11-25T16:49:11.714Z,7.30
2017-11-25T16:52:13.057Z,9.33
2017-11-25T16:55:14.375Z,9.63
2017-11-25T16:58:15.712Z,8.90
2017-11-25T17:01:17.335Z,9.20
2017-11-25T17:04:18.635Z,8.47
2017-11-25T17:07:19.956Z,9.20
2017-11-25T17:10:22.042Z,10.60
2017-11-25T17:13:23.372Z,8.37
2017-11-25T17:16:25.385Z,9.70
2017-11-25T17:19:26.677Z,10.80
2017-11-25T17:22:27.937Z,11.53
2017-11-25T17:25:30.011Z,9.63
2017-11-25T17:28:32.319Z,10.00
2017-11-25T17:31:33.637Z,13.47
2017-11-25T17:34:34.950Z,11.90
2017-11-25T17:37:36.285Z,9.40
2017-11-25T17:40:37.699Z,10.20
2017-11-25T17:43:39.013Z,10.97
2017-11-25T17:46:40.387Z,8.10
2017-11-25T17:49:41.709Z,8.43
2017-11-25T17:52:43.089Z,6.30
2017-11-25T17:55:44.432Z,6.33
2017-11-25T17:58:46.482Z,6.60
2017-11-25T18:01:47.831Z,5.07
2017-11-25T18:04:49.136Z,5.67
2017-11-25T18:07:50.495Z,5.60
2017-11-25T18:10:51.809Z,4.53
2017-11-25T18:13:53.175Z,3.97
2017-11-25T18:16:54.489Z,3.80
2017-11-25T18:19:56.632Z,3.10
2017-11-25T18:22:57.994Z,3.57
2017-11-25T18:25:59.383Z,4.07
2017-11-25T18:29:00.761Z,3.20
2017-11-25T18:32:02.114Z,3.00
2017-11-25T18:35:03.929Z,3.00
2017-11-25T18:38:05.991Z,3.53
2017-11-25T18:41:08.132Z,3.37
2017-11-25T18:44:09.478Z,3.60
2017-11-25T18:47:10.855Z,3.77
2017-11-25T18:50:12.953Z,3.93
2017-11-25T18:53:14.309Z,3.47
2017-11-25T18:56:15.743Z,3.23
2017-11-25T18:59:17.273Z,5.30
2017-11-25T19:02:18.777Z,3.23
2017-11-25T19:08:47.558Z,3.00
2017-11-25T19:11:49.018Z,3.37
2017-11-25T19:14:50.501Z,2.67
2017-11-25T19:17:52.175Z,5.07
2017-11-25T19:20:53.627Z,13.90
2017-11-25T19:23:55.486Z,5.83
2017-11-25T19:26:56.896Z,3.60
2017-11-25T19:29:58.436Z,5.57
2017-11-25T19:32:59.940Z,4.80
2017-11-25T19:39:17.416Z,4.73
2017-11-25T19:42:18.814Z,4.40
2017-11-25T19:45:20.177Z,4.10
2017-11-25T19:48:21.535Z,3.90
2017-11-25T19:51:23.182Z,4.67
2017-11-25T19:54:24.500Z,3.60
2017-11-25T19:57:25.906Z,4.70
2017-11-25T20:00:27.336Z,4.87
2017-11-25T20:03:29.720Z,4.30
2017-11-25T20:06:31.100Z,5.20
2017-11-25T20:09:32.426Z,5.00
2017-11-25T20:12:40.813Z,6.10
2017-11-25T20:15:42.203Z,4.50
2017-11-25T20:18:44.590Z,4.37
2017-11-25T20:21:46.166Z,5.33
2017-11-25T20:24:47.623Z,5.10
2017-11-25T20:27:49.713Z,4.40
2017-11-25T20:30:51.069Z,8.30
2017-11-25T20:33:52.572Z,5.33
2017-11-25T20:36:54.770Z,4.63
2017-11-25T20:39:56.158Z,6.20
2017-11-25T20:42:57.527Z,4.80
2017-11-25T20:45:59.101Z,4.10
2017-11-25T20:49:00.432Z,4.47
2017-11-25T20:52:01.774Z,6.00
2017-11-25T20:55:03.098Z,5.70
2017-11-25T20:58:04.565Z,5.07
2017-11-25T21:01:05.905Z,4.37
2017-11-25T21:04:07.327Z,4.20
2017-11-25T21:07:08.655Z,4.17
2017-11-25T21:10:10.060Z,4.67
2017-11-25T21:13:11.500Z,6.70
2017-11-25T21:16:13.728Z,4.57
2017-11-25T21:19:15.275Z,4.27
2017-11-25T21:22:16.739Z,5.50
2017-11-25T21:25:18.176Z,4.43
2017-11-25T21:28:19.660Z,4.83
2017-11-25T21:31:21.496Z,6.23
2017-11-25T21:34:24.372Z,5.40
2017-11-25T21:37:25.769Z,4.40
2017-11-25T21:40:27.927Z,6.30
2017-11-25T21:43:29.269Z,5.83
2017-11-25T21:46:30.685Z,6.40
2017-11-25T21:49:32.057Z,5.40
2017-11-25T21:52:33.391Z,5.60
2017-11-25T21:55:34.730Z,6.23
2017-11-25T21:58:36.182Z,29.17
2017-11-25T22:01:37.581Z,66.73
2017-11-25T22:04:39.374Z,6.03
2017-11-25T22:07:41.614Z,7.57
2017-11-25T22:10:43.005Z,7.07
2017-11-25T22:13:44.512Z,7.07
2017-11-25T22:16:45.928Z,7.30
2017-11-25T22:19:47.350Z,7.00
2017-11-25T22:22:49.489Z,6.80
2017-11-25T22:25:50.914Z,6.83
2017-11-25T22:28:53.389Z,6.50
2017-11-25T22:31:54.822Z,6.60
2017-11-25T22:34:56.639Z,5.93
2017-11-25T22:37:57.995Z,6.47
2017-11-25T22:40:59.558Z,6.40
2017-11-25T22:44:01.031Z,4.70
2017-11-25T22:47:02.487Z,5.87
2017-11-25T22:50:04.804Z,5.87
2017-11-25T22:53:06.260Z,4.97
2017-11-25T22:56:07.880Z,4.70
2017-11-25T22:59:09.608Z,5.13
2017-11-25T23:02:11.141Z,4.67
2017-11-25T23:05:12.627Z,5.77
2017-11-25T23:08:14.023Z,6.57
2017-11-25T23:11:15.509Z,5.30
2017-11-25T23:14:17.019Z,6.77
2017-11-25T23:17:18.442Z,6.30
2017-11-25T23:20:20.602Z,6.70
2017-11-25T23:23:22.734Z,6.50
2017-11-25T23:26:24.176Z,6.43
2017-11-25T23:29:25.606Z,7.17
2017-11-25T23:32:27.097Z,6.47
2017-11-25T23:35:28.481Z,6.87
2017-11-25T23:41:39.059Z,7.50
2017-11-25T23:44:41.253Z,6.67
2017-11-25T23:47:42.706Z,6.97
2017-11-25T23:50:44.109Z,7.77
2017-11-25T23:53:45.538Z,6.33
2017-11-25T23:56:46.953Z,7.90
2017-11-25T23:59:48.353Z,6.97
